Time;durP1;ratioP1;P1;durP2;ratioP2;P2;SDS_P1;SDS_P2;PMS_P1;PMS_P2;Temp;Humidity;BMP_temperature;BMP_pressure;BME280_temperature;BME280_humidity;BME280_pressure;Samples;Min_cycle;Max_cycle;Signal;HPM_P1;HPM_P2
2021/03/23 04:06:17;;;;;;;17.92;13.10;;;;;;;0.42;100.00;99086.65;1711118;78;21183;-61
2021/03/23 04:08:46;;;;;;;18.82;13.22;;;;;;;0.40;100.00;99086.78;1708556;82;21187;-62
2021/03/23 04:11:14;;;;;;;17.75;12.93;;;;;;;0.39;100.00;99085.17;1710502;82;21220;-62
2021/03/23 04:13:43;;;;;;;17.92;12.98;;;;;;;0.39;100.00;99097.99;1711347;82;21706;-62
2021/03/23 04:16:12;;;;;;;15.30;12.13;;;;;;;0.41;100.00;99111.94;1710714;82;21198;-62
2021/03/23 04:18:42;;;;;;;17.17;13.45;;;;;;;0.43;100.00;99119.02;1703122;82;20990;-66
2021/03/23 04:21:10;;;;;;;18.55;12.90;;;;;;;0.44;100.00;99107.80;1704348;82;21133;-62
2021/03/23 04:23:41;;;;;;;16.82;12.98;;;;;;;0.46;100.00;99109.76;1708972;82;21155;-61
2021/03/23 04:26:11;;;;;;;16.75;12.73;;;;;;;0.48;100.00;99112.48;1707373;82;21194;-60
2021/03/23 04:28:40;;;;;;;18.52;13.62;;;;;;;0.51;100.00;99124.70;1706246;82;21163;-61
2021/03/23 04:31:12;;;;;;;19.57;14.78;;;;;;;0.54;100.00;99125.69;1697438;82;21660;-61
2021/03/23 04:33:41;;;;;;;19.48;13.98;;;;;;;0.56;100.00;99123.29;1686976;83;22545;-61
2021/03/23 04:36:11;;;;;;;18.27;13.95;;;;;;;0.60;100.00;99124.61;1702670;82;21198;-59
2021/03/23 04:38:39;;;;;;;16.35;12.93;;;;;;;0.63;100.00;99135.05;1709403;82;22102;-66
2021/03/23 04:41:11;;;;;;;18.70;13.32;;;;;;;0.63;100.00;99132.02;1708233;82;21132;-59
2021/03/23 04:43:43;;;;;;;18.60;13.55;;;;;;;0.62;100.00;99135.53;1709630;82;21536;-60
2021/03/23 04:46:12;;;;;;;18.40;13.05;;;;;;;0.62;100.00;99139.38;1717443;81;21179;-60
2021/03/23 04:48:41;;;;;;;17.35;13.53;;;;;;;0.63;100.00;99148.68;1713778;81;21484;-61
2021/03/23 04:51:12;;;;;;;17.62;12.37;;;;;;;0.63;100.00;99151.73;1717901;81;21203;-60
2021/03/23 04:53:41;;;;;;;16.30;12.73;;;;;;;0.63;100.00;99147.87;1713005;81;21171;-61
2021/03/23 04:56:23;;;;;;;16.87;12.95;;;;;;;0.63;100.00;99146.12;1715251;82;21141;-61
2021/03/23 04:58:52;;;;;;;18.25;14.03;;;;;;;0.67;100.00;99149.20;1717276;81;21028;-63
2021/03/23 05:01:21;;;;;;;15.68;12.25;;;;;;;0.68;100.00;99145.67;1715356;82;21115;-61
2021/03/23 05:03:57;;;;;;;19.27;13.48;;;;;;;0.68;100.00;99150.35;1712771;81;21378;-62
2021/03/23 05:06:25;;;;;;;20.40;14.50;;;;;;;0.66;100.00;99153.52;1683633;84;21053;-62
2021/03/23 05:08:55;;;;;;;18.50;12.47;;;;;;;0.67;100.00;99145.34;1688833;83;21246;-63
2021/03/23 05:11:27;;;;;;;19.25;14.33;;;;;;;0.68;100.00;99145.67;1686650;83;20955;-62
2021/03/23 05:13:57;;;;;;;16.70;12.82;;;;;;;0.68;100.00;99143.11;1686336;83;21117;-68
2021/03/23 05:16:25;;;;;;;18.90;14.75;;;;;;;0.69;100.00;99141.70;1683031;85;21294;-62
2021/03/23 05:18:54;;;;;;;18.07;13.35;;;;;;;0.69;100.00;99130.16;1687396;83;21117;-62
2021/03/23 05:21:23;;;;;;;18.15;13.48;;;;;;;0.69;100.00;99135.28;1687251;83;21149;-62
2021/03/23 05:24:14;;;;;;;17.70;13.00;;;;;;;0.70;100.00;99132.23;1688097;83;21181;-63
2021/03/23 05:26:44;;;;;;;17.25;13.35;;;;;;;0.70;100.00;99127.11;1766655;80;20943;-63
2021/03/23 05:29:13;;;;;;;17.70;14.07;;;;;;;0.70;100.00;99125.34;1782211;78;21607;-63
2021/03/23 05:31:42;;;;;;;18.98;13.90;;;;;;;0.72;100.00;99126.02;1788721;78;21010;-63
2021/03/23 05:34:12;;;;;;;15.78;13.18;;;;;;;0.77;100.00;99120.92;1775370;79;21055;-63
2021/03/23 05:36:44;;;;;;;20.68;13.58;;;;;;;0.81;100.00;99117.91;1766454;79;20991;-63
2021/03/23 05:39:12;;;;;;;17.42;12.60;;;;;;;0.86;100.00;99121.30;1794883;79;20965;-69
2021/03/23 05:42:11;;;;;;;17.52;13.50;;;;;;;0.90;100.00;99123.89;1780166;79;21356;-66
2021/03/23 05:44:53;;;;;;;18.57;14.10;;;;;;;0.93;100.00;99117.98;1715912;83;21184;-62
2021/03/23 05:47:27;;;;;;;17.75;13.38;;;;;;;0.95;100.00;99123.80;1774592;78;21697;-62
2021/03/23 05:50:19;;;;;;;15.90;13.03;;;;;;;1.00;100.00;99123.34;1778988;78;21537;-63
2021/03/23 05:52:57;;;;;;;17.48;14.05;;;;;;;1.04;100.00;99124.65;1781170;78;21161;-64
2021/03/23 05:55:41;;;;;;;17.70;13.03;;;;;;;1.07;100.00;99126.92;1775306;79;21391;-65
2021/03/23 05:58:22;;;;;;;18.92;14.28;;;;;;;1.09;100.00;99127.56;1771549;79;21662;-71
2021/03/23 06:01:08;;;;;;;17.73;13.72;;;;;;;1.14;100.00;99120.72;1775324;79;21146;-63
2021/03/23 06:03:43;;;;;;;16.95;13.48;;;;;;;1.23;100.00;99122.38;1776516;80;21566;-70
2021/03/23 06:06:20;;;;;;;17.60;14.33;;;;;;;1.31;100.00;99124.18;1773338;79;21289;-62
2021/03/23 06:08:49;;;;;;;18.30;13.70;;;;;;;1.38;100.00;99120.86;1775620;79;21291;-63
2021/03/23 06:11:42;;;;;;;16.67;13.50;;;;;;;1.45;100.00;99122.34;1770230;79;21123;-73
2021/03/23 06:14:32;;;;;;;18.10;13.65;;;;;;;1.53;100.00;99123.67;1769080;79;21568;-64
2021/03/23 06:17:41;;;;;;;19.55;14.07;;;;;;;1.61;100.00;99127.56;1756549;79;21100;-64
2021/03/23 06:20:40;;;;;;;19.52;14.70;;;;;;;1.61;100.00;99123.70;1772760;78;21224;-74
2021/03/23 06:23:56;;;;;;;22.03;15.63;;;;;;;1.62;100.00;99115.03;1831313;77;23375;-73
2021/03/23 06:27:15;;;;;;;17.60;13.70;;;;;;;1.59;100.00;99115.36;1800599;78;21608;-63
2021/03/23 06:30:06;;;;;;;17.60;14.35;;;;;;;1.66;100.00;99116.34;1795711;78;20994;-64
2021/03/23 06:32:52;;;;;;;20.85;15.85;;;;;;;1.75;100.00;99118.97;1795489;78;21747;-63
2021/03/23 06:35:42;;;;;;;23.98;17.48;;;;;;;1.87;100.00;99131.86;1792132;78;21034;-63
2021/03/23 06:38:39;;;;;;;18.85;14.35;;;;;;;2.02;100.00;99129.02;1795193;79;21335;-64
2021/03/23 06:41:27;;;;;;;21.27;16.17;;;;;;;2.20;100.00;99127.64;1800815;79;21709;-64
2021/03/23 06:44:00;;;;;;;19.75;15.40;;;;;;;2.35;100.00;99125.23;1795508;78;21468;-65
2021/03/23 06:46:40;;;;;;;19.07;14.78;;;;;;;2.49;100.00;99130.25;1796625;78;22285;-65
2021/03/23 06:49:31;;;;;;;18.80;15.25;;;;;;;2.66;100.00;99139.13;1769717;80;21093;-66
2021/03/23 06:52:04;;;;;;;19.07;14.20;;;;;;;2.87;100.00;99147.64;1740848;81;21200;-66
2021/03/23 06:54:39;;;;;;;16.12;12.73;;;;;;;3.11;100.00;99148.14;1739055;81;21639;-66
2021/03/23 06:57:17;;;;;;;17.07;13.43;;;;;;;3.33;100.00;99136.38;1735526;81;22594;-66
2021/03/23 06:59:57;;;;;;;17.60;13.68;;;;;;;3.44;100.00;99141.64;1741209;81;21068;-68
2021/03/23 07:02:42;;;;;;;18.45;13.08;;;;;;;3.56;100.00;99146.79;1734776;81;21251;-65
2021/03/23 07:05:33;;;;;;;23.52;16.20;;;;;;;3.70;100.00;99154.79;1742338;81;21196;-64
2021/03/23 07:08:13;;;;;;;16.20;13.38;;;;;;;3.71;100.00;99149.95;1738030;81;22473;-65
2021/03/23 07:10:55;;;;;;;15.15;12.95;;;;;;;3.73;100.00;99154.47;1741983;81;22335;-65
2021/03/23 07:13:32;;;;;;;15.23;12.28;;;;;;;3.73;100.00;99150.60;1734099;81;21668;-65
2021/03/23 07:16:11;;;;;;;16.65;12.78;;;;;;;3.74;100.00;99147.05;1736733;81;21243;-66
2021/03/23 07:18:45;;;;;;;18.02;14.47;;;;;;;3.76;100.00;99136.09;1722175;81;21587;-66
2021/03/23 07:21:31;;;;;;;15.88;13.28;;;;;;;3.84;100.00;99136.86;1736637;81;21137;-65
2021/03/23 07:24:18;;;;;;;15.85;13.25;;;;;;;3.94;100.00;99134.09;1744050;81;22230;-65
2021/03/23 07:27:05;;;;;;;17.77;13.32;;;;;;;4.05;100.00;99136.31;1736405;81;21203;-65
2021/03/23 07:29:37;;;;;;;15.53;12.63;;;;;;;4.19;100.00;99140.42;1739514;81;21153;-66
2021/03/23 07:32:40;;;;;;;15.58;12.13;;;;;;;4.30;100.00;99135.68;1738954;81;21141;-65
2021/03/23 07:35:33;;;;;;;17.35;13.78;;;;;;;4.29;100.00;99128.12;1620681;86;21202;-65
2021/03/23 07:38:41;;;;;;;19.05;15.25;;;;;;;4.35;100.00;99131.30;1619729;87;22150;-64
2021/03/23 07:41:25;;;;;;;16.97;13.30;;;;;;;4.30;100.00;99127.14;1619837;87;21163;-65
2021/03/23 07:44:39;;;;;;;17.98;14.58;;;;;;;4.20;100.00;99120.09;1619767;87;21234;-65
2021/03/23 07:47:38;;;;;;;17.32;14.58;;;;;;;4.21;100.00;99129.45;1620001;87;21231;-65
2021/03/23 07:50:29;;;;;;;17.82;13.85;;;;;;;4.22;100.00;99124.61;1621320;87;21187;-65
2021/03/23 07:53:22;;;;;;;17.02;14.53;;;;;;;4.25;100.00;99121.20;1619382;87;21239;-65
2021/03/23 07:55:51;;;;;;;17.85;15.28;;;;;;;4.32;100.00;99123.92;1619713;87;21048;-64
2021/03/23 07:58:45;;;;;;;18.40;14.78;;;;;;;4.34;100.00;99120.17;1618763;87;21065;-65
2021/03/23 08:01:43;;;;;;;18.92;16.48;;;;;;;4.38;100.00;99120.64;1615691;87;22165;-66
2021/03/23 08:04:16;;;;;;;18.37;14.98;;;;;;;4.49;100.00;99118.95;1621609;87;21502;-65
2021/03/23 08:07:08;;;;;;;16.40;13.15;;;;;;;4.69;100.00;99119.78;1619603;86;21301;-65
2021/03/23 08:10:12;;;;;;;19.35;15.95;;;;;;;4.73;100.00;99120.55;1620036;86;21204;-64
2021/03/23 08:12:54;;;;;;;21.90;16.87;;;;;;;4.67;100.00;99130.30;1618544;87;21061;-64
2021/03/23 08:16:08;;;;;;;21.73;16.82;;;;;;;4.64;100.00;99121.59;1577203;87;21183;-65
2021/03/23 08:19:09;;;;;;;19.35;15.18;;;;;;;4.59;100.00;99120.83;1605207;86;21180;-66
2021/03/23 08:22:37;;;;;;;22.30;17.85;;;;;;;4.55;100.00;99123.44;1620789;86;21230;-64
2021/03/23 08:25:26;;;;;;;24.30;18.77;;;;;;;4.61;100.00;99121.45;1654623;86;21693;-65
2021/03/23 08:28:19;;;;;;;28.15;22.17;;;;;;;4.67;100.00;99119.17;1669098;84;21165;-65
2021/03/23 08:31:34;;;;;;;22.77;18.40;;;;;;;4.63;100.00;99122.09;1668659;84;21262;-65
2021/03/23 08:34:31;;;;;;;23.80;19.17;;;;;;;4.64;100.00;99121.11;1572278;89;21305;-66
2021/03/23 08:37:26;;;;;;;23.77;16.50;;;;;;;4.74;100.00;99126.05;1548974;91;22187;-66
2021/03/23 08:40:27;;;;;;;24.18;17.27;;;;;;;4.88;100.00;99124.47;1634052;85;21186;-66
2021/03/23 08:42:56;;;;;;;20.30;15.83;;;;;;;5.01;100.00;99122.61;1637608;86;21174;-66
2021/03/23 08:45:37;;;;;;;17.80;12.85;;;;;;;5.15;100.00;99122.30;1640989;85;21178;-65
2021/03/23 08:48:35;;;;;;;18.62;13.90;;;;;;;5.18;100.00;99114.20;1668102;84;21189;-65
2021/03/23 08:51:09;;;;;;;15.78;12.65;;;;;;;5.20;100.00;99116.14;1640473;85;21409;-66
2021/03/23 08:53:42;;;;;;;20.20;14.58;;;;;;;5.18;100.00;99115.00;1638683;86;21085;-65
2021/03/23 08:56:11;;;;;;;17.55;14.05;;;;;;;5.19;100.00;99116.63;1639400;86;21223;-66
2021/03/23 08:58:46;;;;;;;17.10;13.40;;;;;;;5.23;100.00;99119.17;1604977;86;21192;-67
2021/03/23 09:01:40;;;;;;;23.25;16.10;;;;;;;5.25;100.00;99117.70;1637848;86;21251;-68
2021/03/23 09:04:16;;;;;;;19.12;14.90;;;;;;;5.32;100.00;99116.02;1639019;86;21220;-67
2021/03/23 09:06:55;;;;;;;17.90;14.15;;;;;;;5.40;100.00;99115.13;1641689;86;21082;-65
2021/03/23 09:09:30;;;;;;;17.20;13.93;;;;;;;5.40;100.00;99115.92;1611087;87;21258;-66
2021/03/23 09:12:42;;;;;;;16.15;13.55;;;;;;;5.45;100.00;99112.80;1640060;86;21243;-67
2021/03/23 09:15:24;;;;;;;22.95;17.15;;;;;;;5.59;100.00;99115.89;1641740;86;21267;-65
2021/03/23 09:18:15;;;;;;;18.75;14.53;;;;;;;5.85;100.00;99112.34;1583527;89;21461;-67
2021/03/23 09:20:53;;;;;;;15.50;12.25;;;;;;;6.06;100.00;99114.70;1638346;86;21204;-66
2021/03/23 09:23:27;;;;;;;18.32;14.25;;;;;;;6.16;100.00;99111.83;1634369;85;21228;-67
2021/03/23 09:26:40;;;;;;;17.98;15.38;;;;;;;6.15;100.00;99106.36;1658919;85;21044;-67
2021/03/23 09:29:40;;;;;;;16.15;13.72;;;;;;;6.09;100.00;99107.88;1667244;85;21805;-68
2021/03/23 09:32:22;;;;;;;15.95;12.85;;;;;;;6.09;100.00;99116.92;1668168;85;21219;-66
2021/03/23 09:35:11;;;;;;;17.95;13.98;;;;;;;6.14;100.00;99115.91;1665520;85;21252;-65
2021/03/23 09:37:50;;;;;;;15.93;13.22;;;;;;;6.27;100.00;99113.95;1662537;85;20998;-65
2021/03/23 09:40:23;;;;;;;14.58;12.13;;;;;;;6.32;100.00;99114.98;1663058;85;21661;-66
2021/03/23 09:43:04;;;;;;;16.37;12.63;;;;;;;6.34;100.00;99114.82;1651322;85;21244;-66
2021/03/23 09:45:37;;;;;;;15.72;13.38;;;;;;;6.46;100.00;99117.23;1665908;85;21277;-65
2021/03/23 09:48:36;;;;;;;16.05;13.53;;;;;;;6.63;100.00;99119.56;1660503;85;21582;-65
2021/03/23 09:51:23;;;;;;;16.52;14.07;;;;;;;6.73;100.00;99121.36;1659364;85;21128;-66
2021/03/23 09:53:53;;;;;;;14.98;12.53;;;;;;;6.66;100.00;99124.37;1641168;85;21395;-66
2021/03/23 09:56:26;;;;;;;16.20;13.03;;;;;;;6.48;100.00;99123.03;1669799;85;21193;-65
2021/03/23 09:59:02;;;;;;;14.95;12.75;;;;;;;6.28;100.00;99122.81;1625939;87;22744;-66
2021/03/23 10:01:34;;;;;;;14.35;12.15;;;;;;;6.19;100.00;99123.91;1633835;87;21162;-66
2021/03/23 10:04:04;;;;;;;16.55;12.73;;;;;;;6.17;100.00;99124.58;1689979;84;21038;-66
2021/03/23 10:06:46;;;;;;;19.20;16.95;;;;;;;6.24;100.00;99123.36;1688189;84;21194;-66
2021/03/23 10:09:24;;;;;;;20.57;16.75;;;;;;;6.47;100.00;99118.02;1688690;84;21183;-64
2021/03/23 10:11:53;;;;;;;18.50;14.83;;;;;;;6.61;100.00;99119.77;1663686;84;21223;-66
2021/03/23 10:14:35;;;;;;;17.17;14.65;;;;;;;6.58;100.00;99127.39;1688906;84;21184;-65
2021/03/23 10:17:21;;;;;;;16.07;13.65;;;;;;;6.45;100.00;99127.78;1690207;84;21236;-64
2021/03/23 10:19:56;;;;;;;16.75;13.32;;;;;;;6.14;100.00;99124.97;1686846;84;21735;-64
2021/03/23 10:22:36;;;;;;;17.70;14.83;;;;;;;5.79;100.00;99125.19;1688245;84;21156;-63
2021/03/23 10:25:09;;;;;;;17.60;14.15;;;;;;;5.45;100.00;99125.73;1686998;83;21422;-64
2021/03/23 10:27:37;;;;;;;15.53;12.23;;;;;;;5.10;100.00;99127.51;1688188;84;21238;-65
2021/03/23 10:30:16;;;;;;;18.57;14.07;;;;;;;4.82;100.00;99123.40;1690267;84;21223;-64
2021/03/23 10:33:01;;;;;;;20.40;15.13;;;;;;;4.60;100.00;99122.42;1817393;78;23111;-65
2021/03/23 10:35:44;;;;;;;20.02;14.30;;;;;;;4.39;100.00;99117.91;1792875;79;21599;-65
2021/03/23 10:38:21;;;;;;;19.62;15.78;;;;;;;4.36;100.00;99118.73;1782407;79;21196;-67
2021/03/23 10:40:51;;;;;;;21.05;15.75;;;;;;;4.42;100.00;99124.48;1793148;79;21036;-64
2021/03/23 10:43:32;;;;;;;20.27;15.18;;;;;;;4.56;100.00;99116.50;1790186;79;21656;-63
2021/03/23 10:46:03;;;;;;;20.65;17.23;;;;;;;4.73;100.00;99122.33;1786859;79;21045;-65
2021/03/23 10:48:37;;;;;;;24.80;17.48;;;;;;;4.82;100.00;99112.27;1790135;79;20993;-64
2021/03/23 10:51:28;;;;;;;26.23;17.12;;;;;;;4.89;100.00;99114.48;1786202;79;21371;-64
2021/03/23 10:54:13;;;;;;;20.97;16.30;;;;;;;4.95;100.00;99122.00;1777349;78;20986;-65
2021/03/23 10:56:45;;;;;;;29.20;20.30;;;;;;;4.93;100.00;99123.48;1745660;80;20937;-65
2021/03/23 10:59:19;;;;;;;23.25;18.55;;;;;;;4.88;100.00;99121.89;1745720;82;21264;-66
2021/03/23 11:05:13;;;;;;;25.20;20.67;;;;;;;4.78;100.00;99134.25;1798115;78;22924;-68
2021/03/23 11:07:55;;;;;;;24.92;20.25;;;;;;;4.61;100.00;99124.02;1782475;79;21726;-65
2021/03/23 11:10:26;;;;;;;27.77;22.98;;;;;;;4.49;100.00;99120.24;1791255;79;21193;-65
2021/03/23 11:12:54;;;;;;;24.07;20.25;;;;;;;4.36;100.00;99110.50;1782018;79;21361;-64
2021/03/23 11:15:25;;;;;;;29.55;21.85;;;;;;;4.27;100.00;99107.64;1784085;79;21627;-64
2021/03/23 11:17:55;;;;;;;27.67;20.27;;;;;;;4.26;100.00;99103.95;1776278;79;20994;-66
2021/03/23 11:20:36;;;;;;;28.00;21.12;;;;;;;4.30;100.00;99097.47;1706683;79;21061;-66
2021/03/23 11:23:05;;;;;;;23.02;17.90;;;;;;;4.45;100.00;99091.89;1784215;79;22264;-65
2021/03/23 11:25:33;;;;;;;18.00;13.50;;;;;;;4.63;100.00;99106.60;1787717;79;21622;-64
2021/03/23 11:28:02;;;;;;;16.02;12.73;;;;;;;4.76;100.00;99104.72;1792291;79;22164;-66
2021/03/23 11:30:31;;;;;;;17.37;13.48;;;;;;;4.79;100.00;99105.67;1794935;79;21065;-65
2021/03/23 11:33:01;;;;;;;15.80;12.60;;;;;;;4.78;100.00;99111.02;1789488;79;21172;-65
2021/03/23 11:35:29;;;;;;;20.37;15.10;;;;;;;4.72;100.00;99120.73;1781260;79;22119;-64
2021/03/23 11:37:58;;;;;;;18.05;13.98;;;;;;;4.66;100.00;99122.70;1792495;79;21069;-63
2021/03/23 11:40:28;;;;;;;16.15;12.85;;;;;;;4.59;100.00;99120.03;1793276;79;21006;-64
2021/03/23 11:42:56;;;;;;;15.53;11.73;;;;;;;4.58;100.00;99121.81;1795989;79;21583;-65
2021/03/23 11:45:41;;;;;;;12.82;10.50;;;;;;;4.61;100.00;99126.61;1787472;79;21084;-64
2021/03/23 11:48:14;;;;;;;14.07;10.58;;;;;;;4.66;100.00;99137.73;1771357;79;21380;-64
2021/03/23 11:50:45;;;;;;;12.80;10.58;;;;;;;4.69;100.00;99135.27;1784333;79;21210;-65
2021/03/23 11:53:15;;;;;;;12.63;10.13;;;;;;;4.73;100.00;99137.33;1795506;78;21089;-62
2021/03/23 11:55:44;;;;;;;10.78;9.40;;;;;;;4.79;100.00;99136.65;1782587;79;20997;-66
2021/03/23 11:58:14;;;;;;;12.13;9.88;;;;;;;4.94;100.00;99134.12;1790223;79;21639;-63
2021/03/23 12:00:44;;;;;;;12.40;10.38;;;;;;;5.18;100.00;99126.63;1779647;79;21369;-65
2021/03/23 12:03:14;;;;;;;11.70;9.28;;;;;;;5.60;100.00;99120.07;1793509;79;21194;-63
2021/03/23 12:05:43;;;;;;;10.93;8.85;;;;;;;5.97;100.00;99119.19;1791634;79;21101;-65
2021/03/23 12:08:17;;;;;;;12.30;9.45;;;;;;;6.16;100.00;99112.63;1793952;79;21592;-62
2021/03/23 12:11:12;;;;;;;10.35;8.88;;;;;;;6.22;100.00;99115.00;1791460;79;21684;-62
2021/03/23 12:14:20;;;;;;;10.58;8.60;;;;;;;6.13;100.00;99110.41;1795669;79;21707;-63
2021/03/23 12:17:02;;;;;;;11.15;8.73;;;;;;;6.01;100.00;99110.56;1782369;79;21184;-63
2021/03/23 12:19:35;;;;;;;10.30;8.45;;;;;;;5.76;100.00;99107.47;1789642;79;21007;-61
2021/03/23 12:22:05;;;;;;;9.60;7.92;;;;;;;5.44;100.00;99108.13;1784400;77;21121;-63
2021/03/23 12:24:34;;;;;;;10.65;8.68;;;;;;;5.19;100.00;99108.05;1782001;78;21648;-62
2021/03/23 12:27:05;;;;;;;10.40;8.18;;;;;;;5.01;100.00;99107.91;1790351;79;21362;-62
2021/03/23 12:29:33;;;;;;;10.60;8.50;;;;;;;4.86;100.00;99120.78;1787928;79;21068;-62
2021/03/23 12:32:02;;;;;;;11.95;9.20;;;;;;;4.79;100.00;99126.32;1775915;79;21663;-63
2021/03/23 12:34:32;;;;;;;10.75;8.50;;;;;;;4.75;100.00;99129.43;1785302;78;21030;-63
2021/03/23 12:37:02;;;;;;;10.93;8.93;;;;;;;4.74;100.00;99131.21;1781620;78;21185;-63
2021/03/23 12:39:31;;;;;;;9.85;8.53;;;;;;;4.79;100.00;99131.98;1791500;77;22470;-62
2021/03/23 12:42:02;;;;;;;10.25;7.72;;;;;;;4.90;100.00;99128.98;1758444;79;21221;-64
2021/03/23 12:44:31;;;;;;;10.82;8.83;;;;;;;4.98;100.00;99126.33;1791287;79;22565;-61
2021/03/23 12:47:00;;;;;;;12.68;9.53;;;;;;;5.00;100.00;99119.69;1797335;79;21322;-62
2021/03/23 12:49:29;;;;;;;10.88;8.83;;;;;;;5.06;100.00;99115.13;1780067;79;21196;-62
2021/03/23 12:52:00;;;;;;;14.20;10.10;;;;;;;5.24;100.00;99103.18;1785495;79;21713;-64
2021/03/23 12:54:51;;;;;;;14.43;10.70;;;;;;;5.47;100.00;99112.16;1786111;78;21188;-66
2021/03/23 12:57:26;;;;;;;11.20;9.43;;;;;;;5.73;100.00;99109.12;1792820;79;21198;-64
2021/03/23 12:59:58;;;;;;;10.10;8.00;;;;;;;5.93;100.00;99112.77;1784894;78;21133;-64
2021/03/23 13:02:29;;;;;;;9.90;8.00;;;;;;;6.08;100.00;99104.48;1785723;79;21252;-63
2021/03/23 13:05:00;;;;;;;9.90;7.95;;;;;;;6.37;100.00;99095.05;1792865;79;21543;-62
2021/03/23 13:07:38;;;;;;;13.18;9.90;;;;;;;6.70;100.00;99102.30;1792300;79;21190;-62
2021/03/23 13:10:29;;;;;;;10.18;8.33;;;;;;;6.96;100.00;99103.81;1791113;79;21266;-60
2021/03/23 13:13:03;;;;;;;10.53;7.65;;;;;;;7.06;100.00;99107.39;1786025;79;21132;-63
2021/03/23 13:15:31;;;;;;;9.75;8.15;;;;;;;7.11;100.00;99091.27;1786110;79;21040;-62
2021/03/23 13:18:00;;;;;;;10.28;8.25;;;;;;;7.00;100.00;99110.22;1789245;79;21353;-61
2021/03/23 13:20:30;;;;;;;10.40;8.70;;;;;;;6.83;100.00;99110.20;1792495;79;21239;-62
2021/03/23 13:23:01;;;;;;;10.78;8.33;;;;;;;6.58;100.00;99113.66;1788824;79;21231;-66
2021/03/23 13:25:36;;;;;;;9.25;7.33;;;;;;;6.22;100.00;99117.09;1790253;79;21733;-63
2021/03/23 13:28:27;;;;;;;10.40;7.90;;;;;;;5.92;100.00;99120.23;1788338;79;21095;-61
2021/03/23 13:30:56;;;;;;;10.63;8.13;;;;;;;5.67;100.00;99114.50;1793275;79;22322;-61
2021/03/23 13:33:36;;;;;;;9.43;7.28;;;;;;;5.47;100.00;99123.78;1790092;77;21211;-60
2021/03/23 13:36:07;;;;;;;9.78;7.85;;;;;;;5.30;100.00;99112.33;1792693;79;21195;-61
2021/03/23 13:38:36;;;;;;;;;;;;;;;5.10;100.00;99131.38;1732565;82;21641;-62
2021/03/23 13:41:06;;;;;;;8.83;6.67;;;;;;;4.89;100.00;99122.22;1732467;81;20308;-61
2021/03/23 13:43:38;;;;;;;9.55;7.75;;;;;;;4.76;100.00;99127.95;1753447;80;21458;-61
2021/03/23 13:46:10;;;;;;;8.73;7.25;;;;;;;4.66;100.00;99130.45;1755469;80;21107;-61
2021/03/23 13:48:40;;;;;;;8.35;7.03;;;;;;;4.53;100.00;99134.41;1751992;79;21662;-60
2021/03/23 13:51:10;;;;;;;8.73;7.28;;;;;;;4.47;100.00;99136.41;1785654;79;21594;-61
2021/03/23 13:53:41;;;;;;;9.00;7.30;;;;;;;4.44;100.00;99132.87;1749074;79;21120;-61
2021/03/23 13:56:11;;;;;;;10.23;7.92;;;;;;;4.41;100.00;99146.10;1795658;79;21366;-60
2021/03/23 13:58:42;;;;;;;9.60;7.50;;;;;;;4.32;100.00;99144.06;1795702;77;21203;-60
2021/03/23 14:01:14;;;;;;;8.75;6.70;;;;;;;4.24;100.00;99147.16;1796395;78;21208;-61
2021/03/23 14:03:44;;;;;;;9.30;6.83;;;;;;;4.13;100.00;99144.00;1788784;79;21049;-61
2021/03/23 14:06:20;;;;;;;7.78;6.35;;;;;;;4.05;100.00;99138.88;1770972;79;21105;-61
2021/03/23 14:08:50;;;;;;;9.23;6.72;;;;;;;4.02;100.00;99136.64;1772344;78;21187;-60
2021/03/23 14:11:23;;;;;;;9.55;6.90;;;;;;;4.00;100.00;99139.86;1748049;80;21084;-60
2021/03/23 14:13:54;;;;;;;8.50;7.15;;;;;;;4.07;100.00;99141.28;1723177;81;21022;-61
2021/03/23 14:16:28;;;;;;;8.60;7.03;;;;;;;4.18;100.00;99145.27;1750942;80;21670;-60
2021/03/23 14:18:57;;;;;;;8.95;7.17;;;;;;;4.32;100.00;99155.67;1721280;82;21548;-60
2021/03/23 14:21:26;;;;;;;9.55;7.50;;;;;;;4.41;100.00;99154.33;1722208;82;22662;-62
2021/03/23 14:23:55;;;;;;;8.95;7.03;;;;;;;4.45;100.00;99160.27;1721606;82;21258;-61
2021/03/23 14:26:24;;;;;;;7.97;6.83;;;;;;;4.46;100.00;99158.48;1717226;80;21123;-60
2021/03/23 14:28:53;;;;;;;7.55;6.30;;;;;;;4.44;100.00;99163.83;1772098;79;21157;-60
2021/03/23 14:31:24;;;;;;;9.03;7.47;;;;;;;4.38;100.00;99159.34;1778064;79;21173;-61
2021/03/23 14:33:53;;;;;;;8.70;6.65;;;;;;;4.35;100.00;99163.05;1783680;79;21394;-61
2021/03/23 14:36:25;;;;;;;8.03;6.65;;;;;;;4.37;100.00;99168.86;1774842;79;21165;-61
2021/03/23 14:38:57;;;;;;;9.00;6.92;;;;;;;4.33;100.00;99171.46;1775308;79;21039;-61
2021/03/23 14:41:30;;;;;;;9.38;7.33;;;;;;;4.27;100.00;99170.03;1772929;79;21162;-62
2021/03/23 14:43:59;;;;;;;8.85;7.08;;;;;;;4.18;100.00;99177.51;1776735;79;21680;-60
2021/03/23 14:46:30;;;;;;;8.78;6.90;;;;;;;4.08;100.00;99174.62;1775248;79;21646;-61
2021/03/23 14:48:59;;;;;;;9.58;8.00;;;;;;;4.03;100.00;99178.20;1778486;79;21137;-60
2021/03/23 14:51:33;;;;;;;10.90;7.20;;;;;;;3.99;100.00;99185.95;1779049;79;21011;-60
2021/03/23 14:54:01;;;;;;;9.20;6.92;;;;;;;3.90;100.00;99193.38;1776229;79;21139;-62
2021/03/23 14:56:32;;;;;;;8.65;6.78;;;;;;;3.79;100.00;99191.16;1774393;78;21137;-62
2021/03/23 14:59:06;;;;;;;9.85;7.42;;;;;;;3.66;100.00;99193.77;1770207;79;21207;-61
2021/03/23 15:01:35;;;;;;;9.28;7.17;;;;;;;3.54;100.00;99187.36;1791338;79;22396;-62
2021/03/23 15:04:06;;;;;;;10.38;8.05;;;;;;;3.45;100.00;99186.23;1784028;79;21199;-62
2021/03/23 15:06:34;;;;;;;10.50;8.13;;;;;;;3.36;100.00;99194.47;1782283;79;20997;-62
2021/03/23 15:09:14;;;;;;;11.10;8.58;;;;;;;3.28;100.00;99194.48;1784525;79;20989;-62
2021/03/23 15:11:45;;;;;;;9.95;7.78;;;;;;;3.20;100.00;99199.15;1783501;79;21052;-63
2021/03/23 15:14:15;;;;;;;8.98;7.87;;;;;;;3.10;100.00;99207.02;1787572;79;21039;-63
2021/03/23 15:16:44;;;;;;;10.68;8.35;;;;;;;3.02;100.00;99207.02;1792620;79;20983;-63
2021/03/23 15:19:12;;;;;;;9.73;7.70;;;;;;;2.95;100.00;99206.05;1786180;79;21723;-62
2021/03/23 15:21:43;;;;;;;10.18;8.05;;;;;;;2.90;100.00;99202.67;1772217;79;21156;-61
2021/03/23 15:24:20;;;;;;;12.45;9.13;;;;;;;2.84;100.00;99202.03;1791557;79;22319;-61
2021/03/23 15:26:48;;;;;;;13.68;9.83;;;;;;;2.77;100.00;99198.97;1783756;79;21666;-61
2021/03/23 15:29:21;;;;;;;13.53;9.03;;;;;;;2.70;100.00;99204.42;1789060;79;21119;-61
2021/03/23 15:31:50;;;;;;;12.20;8.93;;;;;;;2.64;100.00;99213.56;1779670;79;21570;-60
2021/03/23 15:34:19;;;;;;;13.48;9.13;;;;;;;2.58;100.00;99215.01;1725830;83;21169;-62
2021/03/23 15:36:52;;;;;;;12.40;9.25;;;;;;;2.53;100.00;99224.14;1750203;81;22458;-60
2021/03/23 15:39:35;;;;;;;11.83;8.73;;;;;;;2.48;100.00;99227.19;1723438;82;21028;-61
2021/03/23 15:42:12;;;;;;;10.23;8.15;;;;;;;2.43;100.00;99237.16;1783673;79;21049;-64
2021/03/23 15:44:41;;;;;;;13.15;9.48;;;;;;;2.39;100.00;99234.56;1789089;79;21426;-63
2021/03/23 15:47:10;;;;;;;10.90;7.58;;;;;;;2.35;100.00;99237.09;1791497;79;21595;-63
2021/03/23 15:49:39;;;;;;;11.85;8.73;;;;;;;2.33;100.00;99234.69;1779477;79;21188;-62
2021/03/23 15:52:09;;;;;;;10.18;8.13;;;;;;;2.30;100.00;99243.20;1770615;78;20983;-62
2021/03/23 15:54:39;;;;;;;21.42;12.40;;;;;;;2.27;100.00;99243.50;1780703;79;21623;-64
2021/03/23 15:57:08;;;;;;;12.53;9.35;;;;;;;2.23;100.00;99257.14;1780718;79;21579;-62
2021/03/23 15:59:39;;;;;;;25.92;16.93;;;;;;;2.19;100.00;99259.21;1787049;79;21118;-63
2021/03/23 16:02:13;;;;;;;258.43;105.20;;;;;;;2.14;100.00;99253.73;1785942;79;22244;-63
2021/03/23 16:04:41;;;;;;;29.20;17.17;;;;;;;2.09;100.00;99249.54;1780390;79;21293;-63
2021/03/23 16:07:25;;;;;;;87.62;48.55;;;;;;;2.04;100.00;99242.75;1776137;79;21122;-63
2021/03/23 16:09:53;;;;;;;201.98;91.35;;;;;;;1.99;100.00;99255.27;1788422;79;20987;-63
2021/03/23 16:12:23;;;;;;;83.00;46.18;;;;;;;1.91;100.00;99262.45;1781145;79;21128;-62
2021/03/23 16:14:51;;;;;;;30.97;24.40;;;;;;;1.85;100.00;99262.23;1787405;79;21207;-63
2021/03/23 16:17:21;;;;;;;24.20;17.42;;;;;;;1.79;100.00;99272.66;1738164;81;21176;-62